Time;durP1;ratioP1;P1;durP2;ratioP2;P2;SDS_P1;SDS_P2;PMS_P1;PMS_P2;Temp;Humidity;BMP_temperature;BMP_pressure;BME280_temperature;BME280_humidity;BME280_pressure;Samples;Min_cycle;Max_cycle;Signal;HPM_P1;HPM_P2
2023/08/18 00:01:44;;;;;;;9.05;2.98;;;;;;;28.11;43.48;100453.69;1680436;85;21303;-80
2023/08/18 00:04:50;;;;;;;11.03;3.35;;;;;;;28.06;43.58;100446.70;1650745;87;21353;-79
2023/08/18 00:07:56;;;;;;;5.55;3.30;;;;;;;27.98;43.67;100443.91;1680468;85;21338;-76
2023/08/18 00:11:02;;;;;;;6.60;3.17;;;;;;;28.11;43.43;100443.85;1652178;86;21345;-74
2023/08/18 00:14:08;;;;;;;7.72;3.47;;;;;;;28.23;43.19;100444.36;1656784;86;21338;-80
2023/08/18 00:17:14;;;;;;;5.62;3.10;;;;;;;28.40;42.81;100438.35;1683686;85;21342;-74
2023/08/18 00:20:21;;;;;;;8.63;3.52;;;;;;;28.39;42.78;100435.84;1656686;86;21213;-74
2023/08/18 00:23:25;;;;;;;7.20;3.25;;;;;;;28.54;42.42;100437.13;1683444;85;21330;-80
2023/08/18 00:26:32;;;;;;;8.15;3.33;;;;;;;28.12;43.15;100437.09;1656089;86;21198;-80
2023/08/18 00:29:39;;;;;;;6.42;2.98;;;;;;;27.64;43.94;100438.14;1683303;85;21322;-74
2023/08/18 00:32:45;;;;;;;8.33;2.98;;;;;;;27.82;43.69;100442.31;1655234;86;21337;-80
2023/08/18 00:35:53;;;;;;;9.30;3.55;;;;;;;27.85;43.62;100451.55;1681955;85;21394;-80
2023/08/18 00:39:01;;;;;;;5.25;3.20;;;;;;;28.05;43.36;100445.02;1655357;86;21348;-74
2023/08/18 00:42:08;;;;;;;7.37;2.92;;;;;;;27.91;43.46;100438.34;1682535;85;21341;-74
2023/08/18 00:45:17;;;;;;;10.23;4.37;;;;;;;27.48;44.22;100437.92;1655817;86;21337;-80
2023/08/18 00:48:22;;;;;;;7.80;3.45;;;;;;;27.69;43.95;100436.70;1683382;85;21907;-80
2023/08/18 00:51:28;;;;;;;9.28;3.65;;;;;;;27.72;43.90;100430.55;1655340;86;22037;-74
2023/08/18 00:54:35;;;;;;;11.60;3.42;;;;;;;27.95;43.49;100430.45;1683391;85;21322;-81
2023/08/18 00:57:43;;;;;;;12.18;3.50;;;;;;;27.84;43.67;100429.38;1655423;86;21376;-75
2023/08/18 01:00:49;;;;;;;14.35;3.20;;;;;;;27.79;43.75;100424.61;1683521;85;21335;-81
2023/08/18 01:03:55;;;;;;;5.90;3.17;;;;;;;27.71;43.81;100424.67;1656528;86;21312;-76
2023/08/18 01:07:02;;;;;;;8.65;3.52;;;;;;;27.35;44.34;100425.31;1682618;85;21374;-76
2023/08/18 01:10:09;;;;;;;4.83;2.98;;;;;;;27.21;44.61;100425.06;1656462;86;21940;-73
2023/08/18 01:13:20;;;;;;;9.18;3.87;;;;;;;27.28;44.36;100426.16;1676609;85;21359;-79
2023/08/18 01:16:33;;;;;;;6.58;3.45;;;;;;;27.34;44.06;100418.59;1643641;87;21347;-76
2023/08/18 01:19:39;;;;;;;6.03;3.00;;;;;;;27.37;43.84;100421.64;1636264;87;21328;-82
2023/08/18 01:22:46;;;;;;;7.62;3.30;;;;;;;27.34;43.82;100422.80;1655283;86;21334;-80
2023/08/18 01:25:52;;;;;;;4.62;3.50;;;;;;;27.41;43.61;100417.70;1671308;86;21955;-74
2023/08/18 01:28:58;;;;;;;5.78;3.02;;;;;;;27.47;43.39;100415.16;1644564;87;21901;-75
2023/08/18 01:32:07;;;;;;;5.10;3.05;;;;;;;27.24;43.77;100419.42;1669438;86;21336;-80
2023/08/18 01:35:13;;;;;;;4.67;2.95;;;;;;;27.15;43.79;100414.98;1656591;86;21305;-75
2023/08/18 01:38:19;;;;;;;7.53;3.33;;;;;;;27.04;44.06;100423.09;1672073;86;21316;-75
2023/08/18 01:41:32;;;;;;;6.62;3.42;;;;;;;26.78;44.60;100422.85;1644961;87;21323;-74
2023/08/18 01:44:38;;;;;;;6.92;3.42;;;;;;;26.77;44.65;100420.58;1670230;86;21297;-81
2023/08/18 01:47:44;;;;;;;11.75;4.20;;;;;;;26.51;44.95;100415.55;1656592;86;21702;-80
2023/08/18 01:50:50;;;;;;;7.00;3.20;;;;;;;26.59;45.01;100416.40;1672199;86;21358;-80
2023/08/18 01:53:57;;;;;;;6.78;3.05;;;;;;;26.55;45.19;100416.67;1644612;87;21945;-80
2023/08/18 01:56:57;;;;;;;5.85;3.12;;;;;;;26.70;44.94;100409.66;1669411;86;21336;-74
2023/08/18 02:00:04;;;;;;;8.63;3.25;;;;;;;26.66;45.01;100411.33;1655151;86;21345;-80
2023/08/18 02:03:11;;;;;;;4.65;3.33;;;;;;;26.42;45.32;100415.22;1670280;86;21283;-74
2023/08/18 02:06:16;;;;;;;4.20;3.02;;;;;;;26.49;45.44;100415.83;1644133;87;21865;-74
2023/08/18 02:09:23;;;;;;;7.30;3.62;;;;;;;26.61;45.27;100428.16;1668989;86;21331;-74
2023/08/18 02:12:29;;;;;;;8.93;3.52;;;;;;;26.68;45.11;100424.53;1655198;86;21230;-75
2023/08/18 02:15:34;;;;;;;19.48;3.55;;;;;;;26.52;45.34;100418.62;1683555;85;21283;-80
2023/08/18 02:18:40;;;;;;;8.08;3.22;;;;;;;26.50;45.50;100429.30;1656632;86;21847;-74
2023/08/18 02:21:45;;;;;;;7.50;3.60;;;;;;;26.35;45.78;100432.02;1683716;85;21327;-74
2023/08/18 02:24:51;;;;;;;9.18;4.08;;;;;;;26.22;46.09;100432.86;1656168;86;21732;-80
2023/08/18 02:27:57;;;;;;;6.37;3.77;;;;;;;26.22;46.19;100434.83;1683656;85;21821;-78
2023/08/18 02:31:11;;;;;;;7.30;3.27;;;;;;;26.33;46.01;100432.88;1656416;86;21917;-74
2023/08/18 02:34:17;;;;;;;4.85;3.52;;;;;;;26.54;45.57;100436.03;1683229;85;21677;-80
2023/08/18 02:37:23;;;;;;;7.47;3.47;;;;;;;26.39;45.95;100440.16;1655540;86;21894;-75
2023/08/18 02:40:30;;;;;;;6.22;3.40;;;;;;;26.39;46.02;100441.56;1681821;85;21876;-80
2023/08/18 02:43:36;;;;;;;5.75;3.30;;;;;;;26.51;45.91;100443.59;1653970;86;21351;-74
2023/08/18 02:46:42;;;;;;;5.83;4.25;;;;;;;26.52;45.93;100447.23;1679549;85;21363;-81
2023/08/18 02:49:47;;;;;;;8.75;4.10;;;;;;;26.21;46.47;100445.20;1655427;86;21293;-81
2023/08/18 02:52:54;;;;;;;13.32;4.12;;;;;;;26.41;46.17;100446.36;1681346;85;21728;-75
2023/08/18 02:56:03;;;;;;;16.42;5.12;;;;;;;26.64;46.01;100452.86;1654846;86;21636;-80
2023/08/18 02:59:09;;;;;;;8.65;4.33;;;;;;;26.55;46.17;100450.33;1682806;85;21310;-80
2023/08/18 03:02:14;;;;;;;9.20;3.80;;;;;;;26.42;46.72;100445.23;1655589;86;21372;-81
2023/08/18 03:05:19;;;;;;;12.58;4.33;;;;;;;26.73;46.23;100456.80;1682255;85;21723;-76
2023/08/18 03:08:25;;;;;;;6.53;3.85;;;;;;;27.05;45.62;100457.05;1655346;86;21219;-81
2023/08/18 03:11:31;;;;;;;14.75;4.33;;;;;;;27.30;45.07;100463.80;1682095;85;21302;-79
2023/08/18 03:14:37;;;;;;;12.63;5.42;;;;;;;27.01;45.53;100458.20;1655094;86;21868;-80
2023/08/18 03:17:43;;;;;;;9.05;3.87;;;;;;;26.63;46.46;100466.61;1650516;87;21362;-75
2023/08/18 03:20:49;;;;;;;8.20;3.95;;;;;;;26.57;46.43;100463.50;1651618;87;21303;-81
2023/08/18 03:23:55;;;;;;;6.28;4.10;;;;;;;26.89;45.92;100468.02;1651566;87;21295;-81
2023/08/18 03:27:02;;;;;;;5.90;3.80;;;;;;;27.07;45.67;100470.82;1650687;87;21990;-81
2023/08/18 03:30:09;;;;;;;9.38;3.58;;;;;;;27.25;45.33;100469.70;1633344;87;21303;-81
2023/08/18 03:33:14;;;;;;;8.05;4.15;;;;;;;27.31;45.15;100471.09;1655476;86;21313;-75
2023/08/18 03:36:21;;;;;;;10.00;4.30;;;;;;;27.43;45.05;100468.27;1681033;85;22206;-74
2023/08/18 03:39:26;;;;;;;5.55;3.80;;;;;;;27.45;45.11;100464.60;1655338;86;21202;-81
2023/08/18 03:42:32;;;;;;;8.03;4.30;;;;;;;27.43;45.30;100465.46;1681041;85;21334;-81
2023/08/18 03:45:39;;;;;;;7.95;4.25;;;;;;;27.78;44.72;100472.12;1655325;86;21309;-75
2023/08/18 03:48:46;;;;;;;6.25;3.67;;;;;;;28.01;44.42;100477.08;1681140;85;21832;-75
2023/08/18 03:51:53;;;;;;;8.55;4.47;;;;;;;28.13;44.29;100480.94;1654719;86;21897;-81
2023/08/18 03:54:58;;;;;;;11.68;4.20;;;;;;;28.00;44.73;100480.19;1682410;85;21306;-75
2023/08/18 03:58:03;;;;;;;5.45;3.75;;;;;;;27.95;44.86;100477.41;1654961;86;21313;-75
2023/08/18 04:01:15;;;;;;;9.28;4.25;;;;;;;28.12;44.65;100480.67;1682115;85;21334;-81
2023/08/18 04:04:22;;;;;;;8.33;4.10;;;;;;;28.35;44.27;100480.58;1655589;86;21368;-80
2023/08/18 04:07:27;;;;;;;5.65;3.22;;;;;;;28.51;43.96;100479.91;1682603;85;21326;-81
2023/08/18 04:10:33;;;;;;;7.83;4.20;;;;;;;28.66;43.84;100483.20;1655488;86;21264;-75
2023/08/18 04:13:39;;;;;;;15.68;4.83;;;;;;;28.87;43.55;100487.53;1682276;85;21327;-80
2023/08/18 04:16:46;;;;;;;6.87;4.33;;;;;;;29.09;43.22;100483.45;1646682;86;21300;-75
2023/08/18 04:19:53;;;;;;;9.45;4.50;;;;;;;29.07;43.25;100480.91;1642045;87;21280;-75
2023/08/18 04:23:00;;;;;;;9.78;4.25;;;;;;;29.13;43.12;100486.78;1669136;86;21315;-81
2023/08/18 04:26:06;;;;;;;7.97;4.50;;;;;;;29.32;43.13;100487.45;1655117;86;21325;-80
2023/08/18 04:29:13;;;;;;;5.65;4.03;;;;;;;29.47;42.76;100490.11;1669952;86;21339;-81
2023/08/18 04:32:18;;;;;;;13.43;4.33;;;;;;;29.79;42.34;100494.57;1642461;87;21362;-81
2023/08/18 04:35:25;;;;;;;16.25;4.15;;;;;;;29.52;42.72;100498.50;1669074;86;21331;-81
2023/08/18 04:38:31;;;;;;;9.83;4.53;;;;;;;29.61;42.93;100499.56;1655678;86;21875;-75
2023/08/18 04:41:40;;;;;;;;;;;;;;;30.02;42.40;100508.96;1673416;86;21288;-75
2023/08/18 04:44:47;;;;;;;14.20;4.60;;;;;;;30.28;41.79;100508.91;1672147;86;20254;-75
2023/08/18 04:47:52;;;;;;;16.93;4.87;;;;;;;29.95;42.10;100514.11;1672276;86;21317;-81
2023/08/18 04:50:58;;;;;;;11.93;5.35;;;;;;;30.26;41.69;100514.60;1672119;86;21963;-81
2023/08/18 04:54:04;;;;;;;12.37;5.58;;;;;;;31.02;40.50;100514.05;1671992;86;21270;-75
2023/08/18 04:57:10;;;;;;;9.85;5.20;;;;;;;31.05;40.39;100517.10;1672169;86;21800;-75
2023/08/18 05:00:16;;;;;;;9.50;5.28;;;;;;;31.21;40.42;100512.59;1671870;86;21267;-80
2023/08/18 05:03:22;;;;;;;14.50;5.05;;;;;;;31.20;40.41;100511.75;1671683;86;21254;-75
2023/08/18 05:06:29;;;;;;;12.13;4.90;;;;;;;31.36;40.50;100517.16;1671911;86;21863;-75
2023/08/18 05:09:35;;;;;;;26.55;14.60;;;;;;;31.33;40.57;100516.36;1671958;86;21840;-75
2023/08/18 05:12:41;;;;;;;9.80;5.05;;;;;;;31.44;40.63;100513.62;1672225;86;21274;-80
2023/08/18 05:15:47;;;;;;;7.62;4.25;;;;;;;31.64;40.18;100523.12;1672195;86;21313;-75
2023/08/18 05:18:52;;;;;;;6.00;4.37;;;;;;;31.64;40.15;100521.71;1653704;85;21684;-75
2023/08/18 05:21:58;;;;;;;12.53;4.22;;;;;;;31.73;39.53;100522.66;1652853;87;21953;-75
2023/08/18 05:25:03;;;;;;;8.28;4.12;;;;;;;31.69;39.80;100525.85;1626994;87;21284;-76
2023/08/18 05:28:09;;;;;;;6.60;4.85;;;;;;;31.77;39.90;100520.05;1612368;87;21344;-81
2023/08/18 05:31:15;;;;;;;7.78;4.72;;;;;;;31.93;39.79;100522.02;1643180;85;21886;-81
2023/08/18 05:34:21;;;;;;;6.80;3.92;;;;;;;32.18;39.33;100513.56;1634111;87;21712;-81
2023/08/18 05:37:27;;;;;;;7.60;4.67;;;;;;;32.18;39.14;100512.98;1649967;87;22204;-81
2023/08/18 05:40:33;;;;;;;13.22;4.95;;;;;;;32.22;39.13;100518.28;1625057;87;21318;-75
2023/08/18 05:43:39;;;;;;;8.05;3.80;;;;;;;32.33;39.27;100516.66;1650876;87;21368;-75
2023/08/18 05:46:45;;;;;;;12.45;4.55;;;;;;;32.47;38.91;100509.02;1649015;87;21315;-81
2023/08/18 05:49:51;;;;;;;9.23;4.10;;;;;;;32.42;38.68;100511.38;1646868;87;21364;-81
2023/08/18 05:52:58;;;;;;;11.93;4.45;;;;;;;32.40;38.73;100514.25;1650987;87;21286;-81
2023/08/18 05:56:03;;;;;;;12.85;4.78;;;;;;;32.53;38.24;100518.48;1651276;87;21910;-74
2023/08/18 05:59:10;;;;;;;8.13;4.12;;;;;;;32.11;38.82;100514.59;1637948;87;21368;-75
2023/08/18 06:02:16;;;;;;;9.70;4.50;;;;;;;32.24;39.01;100521.65;1645643;87;21875;-75
2023/08/18 06:05:22;;;;;;;10.72;3.83;;;;;;;32.29;39.01;100524.94;1624667;87;21279;-80
2023/08/18 06:08:28;;;;;;;7.28;3.87;;;;;;;32.44;38.63;100525.20;1618584;88;21286;-80
2023/08/18 06:11:34;;;;;;;9.60;4.05;;;;;;;32.59;38.50;100520.61;1618867;87;21290;-74
2023/08/18 06:14:40;;;;;;;8.60;4.30;;;;;;;32.74;38.26;100517.98;1635275;87;21353;-79
2023/08/18 06:17:47;;;;;;;8.30;3.85;;;;;;;32.96;38.12;100519.46;1633921;85;21385;-74
2023/08/18 06:20:54;;;;;;;7.58;3.72;;;;;;;33.02;37.67;100513.08;1646730;86;21922;-75
2023/08/18 06:24:01;;;;;;;8.00;4.03;;;;;;;32.95;37.35;100516.38;1641122;86;21312;-76
2023/08/18 06:27:07;;;;;;;8.80;4.47;;;;;;;33.20;37.54;100513.47;1647056;86;21633;-80
2023/08/18 06:30:15;;;;;;;5.83;3.65;;;;;;;33.15;37.47;100515.02;1644253;86;21309;-79
2023/08/18 06:33:14;;;;;;;11.20;4.20;;;;;;;33.44;36.86;100515.98;1643199;86;21297;-81
2023/08/18 06:36:19;;;;;;;6.20;3.52;;;;;;;33.57;36.59;100515.64;1639466;85;21333;-80
2023/08/18 06:39:24;;;;;;;13.15;3.83;;;;;;;33.65;36.01;100512.60;1644267;86;21791;-74
2023/08/18 06:42:30;;;;;;;6.05;3.33;;;;;;;33.72;35.57;100515.20;1644056;85;21328;-80
2023/08/18 06:45:36;;;;;;;17.82;3.80;;;;;;;33.88;35.82;100511.92;1633274;86;21349;-75
2023/08/18 06:48:42;;;;;;;8.98;3.62;;;;;;;33.70;36.43;100508.20;1644651;86;21561;-80
2023/08/18 06:51:48;;;;;;;5.10;3.52;;;;;;;33.64;36.38;100506.66;1638162;86;21325;-81
2023/08/18 06:54:54;;;;;;;8.78;3.20;;;;;;;33.61;36.15;100499.65;1642471;86;21365;-75
2023/08/18 06:58:00;;;;;;;7.40;3.12;;;;;;;33.76;36.30;100499.21;1645507;86;21339;-81
2023/08/18 07:01:07;;;;;;;6.22;3.52;;;;;;;34.12;35.74;100501.05;1647083;86;21341;-82
2023/08/18 07:04:14;;;;;;;5.65;3.47;;;;;;;34.20;35.29;100508.72;1641105;86;21258;-82
2023/08/18 07:07:20;;;;;;;7.80;3.30;;;;;;;34.28;34.84;100507.91;1644640;85;21272;-81
2023/08/18 07:10:27;;;;;;;5.45;3.22;;;;;;;34.44;35.14;100511.69;1635908;86;21870;-81
2023/08/18 07:13:35;;;;;;;7.78;3.58;;;;;;;34.45;34.95;100514.22;1642447;86;21264;-81
2023/08/18 07:16:42;;;;;;;16.07;3.50;;;;;;;34.37;34.70;100502.84;1647167;86;21333;-76
2023/08/18 07:19:47;;;;;;;6.75;3.67;;;;;;;34.54;34.32;100510.01;1640671;86;21265;-81
2023/08/18 07:22:55;;;;;;;6.22;3.70;;;;;;;34.47;34.43;100504.80;1672563;85;21921;-81
2023/08/18 07:26:00;;;;;;;5.90;3.40;;;;;;;34.36;34.59;100505.44;1646887;87;21352;-75
2023/08/18 07:29:06;;;;;;;5.37;3.33;;;;;;;34.41;35.03;100499.02;1670479;85;21325;-81
2023/08/18 07:32:12;;;;;;;4.60;3.50;;;;;;;34.33;34.05;100494.98;1646543;85;21315;-81
2023/08/18 07:35:18;;;;;;;10.00;3.25;;;;;;;34.37;34.02;100500.00;1676199;85;21295;-76
2023/08/18 07:38:25;;;;;;;8.43;2.98;;;;;;;34.66;34.35;100501.64;1649036;87;21290;-81
2023/08/18 07:41:29;;;;;;;7.03;2.90;;;;;;;34.72;33.84;100502.31;1678084;85;21314;-76
2023/08/18 07:44:34;;;;;;;3.65;2.55;;;;;;;34.24;33.88;100496.13;1648980;87;21373;-75
2023/08/18 07:47:45;;;;;;;6.03;3.10;;;;;;;34.44;34.00;100490.39;1682214;85;21286;-75
2023/08/18 07:50:49;;;;;;;7.90;3.25;;;;;;;34.40;34.16;100496.52;1633040;87;21290;-75
2023/08/18 07:53:56;;;;;;;7.25;3.00;;;;;;;34.44;34.35;100495.52;1675287;85;21307;-75
2023/08/18 07:57:03;;;;;;;4.45;3.20;;;;;;;34.56;34.03;100490.62;1618738;87;21307;-82
2023/08/18 08:00:16;;;;;;;4.50;2.65;;;;;;;34.82;33.55;100491.47;1670605;85;21342;-82
2023/08/18 08:03:21;;;;;;;9.43;3.45;;;;;;;34.92;32.71;100482.35;1655566;85;22181;-74
2023/08/18 08:06:27;;;;;;;4.05;3.20;;;;;;;34.92;32.71;100482.35;1677859;85;21453;-75
2023/08/18 08:09:35;;;;;;;6.95;3.30;;;;;;;34.96;33.47;100482.80;1644657;87;21885;-75
2023/08/18 08:12:41;;;;;;;5.72;3.35;;;;;;;34.98;33.42;100490.39;1673348;85;21299;-75
2023/08/18 08:15:46;;;;;;;7.87;3.67;;;;;;;35.05;33.96;100485.05;1658935;86;21298;-75
2023/08/18 08:18:53;;;;;;;8.93;3.80;;;;;;;35.06;34.17;100471.08;1675903;85;21872;-75
2023/08/18 08:21:59;;;;;;;5.53;3.30;;;;;;;35.03;33.98;100473.75;1644518;85;21301;-75
2023/08/18 08:25:05;;;;;;;5.87;3.45;;;;;;;34.86;34.30;100473.73;1671179;85;21841;-74
2023/08/18 08:28:11;;;;;;;6.45;3.20;;;;;;;34.86;34.30;100473.73;1650748;87;21872;-74
2023/08/18 08:31:18;;;;;;;11.15;3.52;;;;;;;35.06;33.66;100472.50;1668418;85;21410;-74
2023/08/18 08:34:24;;;;;;;18.52;3.50;;;;;;;35.28;33.75;100473.44;1628055;87;21291;-75
2023/08/18 08:37:29;;;;;;;3.80;3.27;;;;;;;35.28;33.19;100479.95;1678466;85;21149;-75
2023/08/18 08:40:36;;;;;;;6.97;3.35;;;;;;;35.20;33.32;100476.57;1637057;87;21316;-75
2023/08/18 08:43:42;;;;;;;6.30;3.42;;;;;;;35.26;33.25;100466.68;1676303;85;21256;-75
2023/08/18 08:46:47;;;;;;;6.33;3.40;;;;;;;35.16;33.85;100474.15;1641018;85;21294;-75
2023/08/18 08:49:54;;;;;;;8.33;3.15;;;;;;;35.38;33.27;100477.92;1678534;85;21803;-75
2023/08/18 08:53:00;;;;;;;9.50;3.05;;;;;;;35.50;33.10;100473.83;1649872;85;21282;-75
2023/08/18 08:56:09;;;;;;;7.42;3.42;;;;;;;35.70;32.25;100482.20;1638143;87;21631;-81
2023/08/18 08:59:15;;;;;;;5.37;3.27;;;;;;;35.59;32.11;100476.89;1671159;85;21316;-81
2023/08/18 09:02:20;;;;;;;12.88;3.67;;;;;;;36.36;31.20;100485.36;1622230;87;21890;-75
2023/08/18 09:05:28;;;;;;;8.10;3.33;;;;;;;35.39;32.26;100478.20;1677485;85;21276;-75
2023/08/18 09:08:35;;;;;;;5.75;3.58;;;;;;;35.39;32.26;100478.20;1635855;87;21326;-81
2023/08/18 09:11:50;;;;;;;8.15;3.17;;;;;;;36.07;31.80;100483.38;1664840;85;21908;-81
2023/08/18 09:14:56;;;;;;;4.25;3.12;;;;;;;35.87;32.10;100479.28;1635218;87;21301;-81
2023/08/18 09:18:01;;;;;;;8.60;3.40;;;;;;;35.78;31.97;100470.78;1667817;84;21323;-80
2023/08/18 09:21:06;;;;;;;11.30;3.05;;;;;;;35.95;31.84;100483.27;1641751;86;21341;-81
2023/08/18 09:24:13;;;;;;;3.00;2.72;;;;;;;35.79;32.75;100483.83;1677014;85;21348;-82
2023/08/18 09:27:21;;;;;;;7.28;3.40;;;;;;;36.22;31.24;100480.52;1644921;87;21332;-82
2023/08/18 09:30:27;;;;;;;9.63;3.10;;;;;;;36.19;31.32;100475.54;1677761;85;21187;-82
2023/08/18 09:33:34;;;;;;;6.12;3.35;;;;;;;36.13;31.07;100475.47;1646403;87;21411;-82
2023/08/18 09:36:40;;;;;;;4.65;2.70;;;;;;;36.22;31.55;100476.25;1676529;85;21157;-75
2023/08/18 09:39:46;;;;;;;6.50;3.62;;;;;;;36.08;32.08;100477.92;1633135;86;21293;-75
2023/08/18 09:42:52;;;;;;;6.87;2.87;;;;;;;36.12;31.09;100479.50;1645820;85;21888;-75
2023/08/18 09:46:04;;;;;;;8.10;3.55;;;;;;;36.03;30.82;100476.70;1624005;85;21359;-82
2023/08/18 09:49:10;;;;;;;6.33;3.10;;;;;;;36.17;30.59;100472.19;1633040;87;21314;-81
2023/08/18 09:52:16;;;;;;;4.28;3.10;;;;;;;36.39;30.39;100475.31;1672070;85;21275;-81
2023/08/18 09:55:24;;;;;;;4.12;2.90;;;;;;;35.86;30.67;100471.09;1635376;87;21300;-75
2023/08/18 09:58:56;;;;;;;6.35;2.90;;;;;;;35.94;30.94;100480.16;1659903;85;21319;-75
2023/08/18 10:02:01;;;;;;;8.10;3.17;;;;;;;35.93;30.85;100479.32;1629076;87;21711;-75
2023/08/18 10:05:08;;;;;;;5.55;3.33;;;;;;;35.61;31.27;100474.28;1655571;86;21747;-75
2023/08/18 10:08:14;;;;;;;7.00;3.12;;;;;;;36.32;30.14;100479.55;1647494;87;21313;-80
2023/08/18 10:11:19;;;;;;;8.38;3.15;;;;;;;36.36;30.14;100475.40;1674324;85;21279;-81
2023/08/18 10:14:30;;;;;;;6.37;3.20;;;;;;;36.49;30.22;100477.77;1655225;86;21892;-81
2023/08/18 10:17:35;;;;;;;8.20;2.85;;;;;;;36.65;30.27;100486.52;1684045;85;21207;-81
2023/08/18 10:20:41;;;;;;;6.47;2.92;;;;;;;36.80;29.12;100473.91;1647101;87;21342;-74
2023/08/18 10:24:03;;;;;;;4.72;3.47;;;;;;;36.74;29.17;100469.59;1657186;86;21151;-81
2023/08/18 10:27:10;;;;;;;4.35;2.70;;;;;;;36.59;29.42;100473.91;1664534;85;21311;-74
2023/08/18 10:30:20;;;;;;;6.67;3.20;;;;;;;36.72;30.16;100475.41;1679912;85;21267;-76
2023/08/18 10:33:39;;;;;;;5.78;2.70;;;;;;;36.87;29.55;100479.63;1675133;85;21330;-74
2023/08/18 10:36:46;;;;;;;5.78;3.42;;;;;;;36.65;29.37;100468.83;1661574;85;21916;-82
2023/08/18 10:39:52;;;;;;;5.58;3.45;;;;;;;36.76;29.36;100458.69;1593937;88;21692;-75
2023/08/18 10:42:59;;;;;;;6.12;3.40;;;;;;;37.06;28.90;100464.30;1684268;85;21286;-75
2023/08/18 10:46:07;;;;;;;4.60;3.37;;;;;;;37.39;29.30;100447.78;1650099;87;21401;-75
2023/08/18 10:49:13;;;;;;;10.40;3.50;;;;;;;37.42;28.64;100462.77;1672717;85;21821;-75
2023/08/18 10:52:20;;;;;;;3.50;2.92;;;;;;;37.46;28.57;100460.28;1637381;87;21285;-75
2023/08/18 10:55:26;;;;;;;6.62;3.02;;;;;;;37.64;28.23;100455.17;1664280;85;22250;-76
2023/08/18 10:58:32;;;;;;;5.20;3.40;;;;;;;37.41;28.30;100455.38;1631767;85;21839;-80
2023/08/18 11:01:38;;;;;;;4.25;3.17;;;;;;;37.24;28.46;100451.52;1630245;87;21309;-81
2023/08/18 11:04:45;;;;;;;10.95;3.92;;;;;;;36.83;29.56;100450.39;1664619;85;21303;-81
2023/08/18 11:07:51;;;;;;;6.85;3.50;;;;;;;37.06;29.27;100450.04;1677965;85;21947;-75
2023/08/18 11:10:58;;;;;;;5.30;2.98;;;;;;;37.04;28.95;100453.25;1653179;86;21331;-75
2023/08/18 11:14:04;;;;;;;5.78;2.70;;;;;;;36.90;28.67;100453.30;1684755;85;21302;-75
2023/08/18 11:17:12;;;;;;;3.65;3.02;;;;;;;36.73;28.74;100450.00;1650529;87;21720;-75
2023/08/18 11:20:19;;;;;;;9.60;3.35;;;;;;;36.64;29.14;100440.70;1679053;85;21290;-75
2023/08/18 11:23:24;;;;;;;10.05;2.95;;;;;;;36.89;28.82;100445.90;1649861;86;21365;-81
2023/08/18 11:26:30;;;;;;;10.48;3.83;;;;;;;36.77;28.85;100445.27;1678826;85;21382;-81
2023/08/18 11:29:36;;;;;;;9.35;2.95;;;;;;;36.56;28.71;100433.91;1643325;85;21293;-81
2023/08/18 11:32:41;;;;;;;6.40;3.30;;;;;;;36.05;29.91;100458.70;1667504;85;21326;-75
2023/08/18 11:35:47;;;;;;;5.70;3.35;;;;;;;35.92;30.06;100453.47;1631179;86;21345;-76
2023/08/18 11:38:58;;;;;;;3.25;2.95;;;;;;;35.93;30.31;100448.61;1658755;85;21268;-75
2023/08/18 11:42:04;;;;;;;3.37;3.00;;;;;;;36.27;29.47;100452.67;1642888;87;21325;-81
2023/08/18 11:45:15;;;;;;;6.55;3.27;;;;;;;36.17;29.42;100450.83;1658277;85;21335;-82
2023/08/18 11:48:20;;;;;;;5.60;2.95;;;;;;;36.20;29.97;100450.16;1624306;87;21312;-75
2023/08/18 11:51:25;;;;;;;13.38;3.55;;;;;;;36.07;29.58;100441.52;1677404;85;21314;-81
2023/08/18 11:54:31;;;;;;;12.68;3.47;;;;;;;36.06;30.36;100441.87;1650105;87;21732;-75
2023/08/18 11:57:40;;;;;;;6.20;3.20;;;;;;;36.55;30.23;100440.17;1679220;85;22276;-75
2023/08/18 12:00:48;;;;;;;4.90;3.10;;;;;;;36.74;29.53;100443.95;1650669;87;21326;-75
2023/08/18 12:04:03;;;;;;;4.90;3.17;;;;;;;36.74;29.66;100433.14;1678785;85;21315;-75
2023/08/18 12:07:09;;;;;;;6.65;3.50;;;;;;;36.49;28.97;100433.63;1649866;87;21341;-81
2023/08/18 12:10:15;;;;;;;11.63;4.00;;;;;;;36.74;28.61;100438.25;1678569;85;21287;-81
2023/08/18 12:13:20;;;;;;;5.70;3.47;;;;;;;36.94;29.67;100435.17;1649648;87;21330;-76
2023/08/18 12:16:25;;;;;;;8.23;3.35;;;;;;;36.89;29.03;100433.08;1678126;85;21347;-82
2023/08/18 12:19:31;;;;;;;4.15;3.50;;;;;;;37.02;29.53;100440.52;1650128;86;21997;-74
2023/08/18 12:22:36;;;;;;;5.60;3.72;;;;;;;37.26;28.02;100432.03;1679589;85;21916;-81
2023/08/18 12:25:42;;;;;;;4.67;3.20;;;;;;;37.28;28.04;100424.56;1650091;87;21412;-80
2023/08/18 12:28:49;;;;;;;7.67;3.62;;;;;;;37.08;28.81;100426.31;1679648;85;21298;-81
2023/08/18 12:31:55;;;;;;;11.18;4.30;;;;;;;36.95;29.07;100431.13;1651595;87;21318;-75
2023/08/18 12:35:00;;;;;;;4.85;3.40;;;;;;;37.14;29.85;100426.31;1680404;85;21965;-75
2023/08/18 12:38:07;;;;;;;4.75;3.20;;;;;;;36.95;28.55;100430.30;1651045;87;21346;-81
2023/08/18 12:41:13;;;;;;;5.08;3.50;;;;;;;36.99;28.43;100424.97;1680369;85;21913;-75
2023/08/18 12:44:18;;;;;;;10.72;3.98;;;;;;;37.06;27.99;100416.66;1651543;87;21294;-81
2023/08/18 12:47:23;;;;;;;5.72;3.92;;;;;;;36.99;28.86;100422.72;1680736;85;21355;-81
2023/08/18 12:50:28;;;;;;;6.95;3.87;;;;;;;37.02;28.91;100419.97;1651757;87;21938;-81
2023/08/18 12:53:34;;;;;;;10.70;3.85;;;;;;;37.20;28.74;100424.89;1680423;85;22158;-82
2023/08/18 12:56:39;;;;;;;5.85;3.33;;;;;;;37.17;28.81;100421.91;1650963;87;21738;-81
2023/08/18 12:59:45;;;;;;;5.65;3.10;;;;;;;36.99;28.43;100417.84;1680574;85;21287;-81
2023/08/18 13:02:50;;;;;;;6.22;3.60;;;;;;;36.68;29.15;100420.30;1651554;87;21693;-75
2023/08/18 13:05:56;;;;;;;12.18;3.85;;;;;;;36.65;29.35;100416.13;1679965;85;21295;-81
2023/08/18 13:09:02;;;;;;;7.62;4.08;;;;;;;36.76;29.52;100425.09;1651530;87;21327;-81
2023/08/18 13:12:09;;;;;;;6.97;4.42;;;;;;;36.81;29.44;100424.88;1680633;85;21275;-75
2023/08/18 13:15:17;;;;;;;5.05;3.42;;;;;;;36.66;30.03;100420.66;1650347;87;21325;-75
2023/08/18 13:18:23;;;;;;;9.90;3.75;;;;;;;36.92;29.49;100426.72;1680783;85;21283;-81
2023/08/18 13:21:30;;;;;;;5.15;3.62;;;;;;;36.91;29.72;100426.48;1650835;87;21362;-81
2023/08/18 13:24:34;;;;;;;11.40;3.05;;;;;;;36.65;29.31;100430.37;1680705;85;21780;-80
2023/08/18 13:27:40;;;;;;;5.58;2.95;;;;;;;36.47;29.39;100422.59;1650338;87;21313;-81
2023/08/18 13:30:45;;;;;;;7.22;3.27;;;;;;;36.47;29.81;100428.28;1679033;85;21327;-82
2023/08/18 13:33:51;;;;;;;4.72;3.10;;;;;;;35.93;30.69;100425.84;1651464;87;21341;-75
2023/08/18 13:36:58;;;;;;;11.05;3.20;;;;;;;35.84;30.57;100421.03;1679893;85;21311;-76
2023/08/18 13:40:04;;;;;;;12.33;3.27;;;;;;;35.94;30.43;100421.22;1651544;87;21322;-74
2023/08/18 13:43:10;;;;;;;3.87;2.80;;;;;;;36.07;29.32;100417.91;1680681;85;21257;-80
2023/08/18 13:46:16;;;;;;;7.17;3.20;;;;;;;36.22;29.31;100424.41;1651635;87;21326;-74
2023/08/18 13:49:21;;;;;;;7.83;2.95;;;;;;;36.33;29.84;100421.41;1680777;85;21960;-79
2023/08/18 13:52:26;;;;;;;4.92;2.83;;;;;;;36.00;29.90;100420.48;1651783;86;21877;-79
2023/08/18 13:55:33;;;;;;;10.40;3.42;;;;;;;35.94;30.17;100414.70;1680557;85;21346;-73
2023/08/18 13:58:38;;;;;;;6.83;2.98;;;;;;;35.75;30.34;100410.28;1651610;87;21305;-76
2023/08/18 14:01:44;;;;;;;4.53;3.12;;;;;;;35.59;30.84;100416.33;1679752;85;21331;-75
2023/08/18 14:04:50;;;;;;;5.62;3.00;;;;;;;35.63;31.03;100415.89;1651668;87;21825;-79
2023/08/18 14:07:56;;;;;;;12.15;3.00;;;;;;;35.61;31.24;100413.95;1679327;85;21923;-75
2023/08/18 14:11:02;;;;;;;7.03;3.77;;;;;;;35.88;31.10;100413.23;1651353;87;21389;-75
2023/08/18 14:14:07;;;;;;;8.08;3.58;;;;;;;36.23;30.23;100416.70;1679355;85;21339;-82
2023/08/18 14:17:15;;;;;;;10.30;3.70;;;;;;;36.14;30.57;100415.37;1650328;87;21361;-81
2023/08/18 14:20:22;;;;;;;9.35;3.30;;;;;;;35.58;31.10;100401.86;1680850;85;21705;-75
2023/08/18 14:23:28;;;;;;;9.33;3.27;;;;;;;35.89;31.39;100404.94;1651519;87;21317;-81
2023/08/18 14:26:34;;;;;;;6.35;3.30;;;;;;;36.08;31.00;100408.19;1680073;85;21990;-81